createdAt,value
2022-10-03T00:04:37.945Z,99.90
2022-10-03T00:15:11.838Z,99.90
2022-10-03T00:25:34.923Z,99.90
2022-10-03T00:36:04.284Z,99.90
2022-10-03T00:46:21.064Z,99.90
2022-10-03T00:56:36.326Z,99.90
2022-10-03T01:07:06.564Z,99.90
2022-10-03T01:17:14.284Z,99.90
2022-10-03T01:27:26.064Z,99.90
2022-10-03T01:37:40.175Z,99.90
2022-10-03T01:48:04.092Z,99.90
2022-10-03T01:58:49.889Z,99.90
2022-10-03T02:09:05.140Z,99.90
2022-10-03T02:19:44.564Z,99.90
2022-10-03T02:29:52.345Z,99.90
2022-10-03T02:40:06.037Z,99.90
2022-10-03T02:50:48.022Z,99.90
2022-10-03T03:01:08.446Z,99.90
2022-10-03T03:11:47.607Z,99.90
2022-10-03T03:22:01.452Z,99.90
2022-10-03T03:32:19.265Z,99.90
2022-10-03T03:42:35.918Z,99.90
2022-10-03T03:53:05.733Z,99.90
2022-10-03T04:03:44.753Z,99.90
2022-10-03T04:13:52.282Z,99.90
2022-10-03T04:24:38.908Z,99.90
2022-10-03T04:34:50.472Z,99.90
2022-10-03T04:45:05.006Z,99.90
2022-10-03T04:55:36.617Z,99.90
2022-10-03T05:06:11.193Z,99.90
2022-10-03T05:16:41.124Z,99.90
2022-10-03T05:26:53.602Z,99.90
2022-10-03T05:37:13.143Z,99.90
2022-10-03T05:47:44.792Z,99.90
2022-10-03T05:58:08.111Z,99.90
2022-10-03T06:08:41.814Z,99.90
2022-10-03T06:19:16.333Z,99.90
2022-10-03T06:29:56.617Z,99.90
2022-10-03T06:40:31.945Z,99.90
2022-10-03T06:50:52.804Z,99.90
2022-10-03T07:01:26.632Z,99.90
2022-10-03T07:11:31.351Z,99.90
2022-10-03T07:21:47.652Z,99.90
2022-10-03T07:32:26.942Z,99.90
2022-10-03T07:42:46.933Z,99.90
2022-10-03T07:53:22.897Z,99.90
2022-10-03T08:03:53.723Z,99.90
2022-10-03T08:14:01.030Z,99.90
2022-10-03T08:24:40.130Z,99.90
2022-10-03T08:35:31.388Z,99.90
2022-10-03T08:46:13.234Z,99.90
2022-10-03T08:56:22.737Z,99.90
2022-10-03T09:17:20.115Z,99.90
2022-10-03T09:27:44.728Z,99.90
2022-10-03T09:38:30.834Z,99.90
2022-10-03T09:48:40.204Z,99.70
2022-10-03T09:59:07.873Z,99.70
2022-10-03T10:09:42.588Z,98.90
2022-10-03T10:19:56.317Z,98.40
2022-10-03T10:30:29.011Z,97.60
2022-10-03T10:41:24.945Z,97.40
2022-10-03T10:51:38.907Z,96.40
2022-10-03T11:01:59.392Z,95.40
2022-10-03T11:12:29.656Z,94.40
2022-10-03T11:23:04.401Z,94.40
2022-10-03T11:33:39.934Z,94.40
2022-10-03T11:44:06.889Z,94.00
2022-10-03T11:54:34.161Z,93.20
2022-10-03T12:04:47.493Z,93.20
2022-10-03T12:14:52.214Z,91.90
2022-10-03T12:25:16.223Z,91.70
2022-10-03T12:35:33.158Z,91.40
2022-10-03T12:45:49.834Z,91.00
2022-10-03T12:56:01.482Z,90.80
2022-10-03T13:06:20.171Z,90.50
2022-10-03T13:16:33.149Z,90.40
2022-10-03T13:26:37.510Z,90.30
2022-10-03T13:37:09.809Z,90.40
2022-10-03T13:47:45.646Z,90.20
2022-10-03T13:58:17.275Z,90.50
2022-10-03T14:08:50.969Z,90.40
2022-10-03T14:19:13.730Z,90.20
2022-10-03T14:29:33.515Z,90.00
2022-10-03T14:39:43.484Z,89.10
2022-10-03T14:49:59.385Z,88.60
2022-10-03T15:00:01.925Z,88.80
2022-10-03T15:10:09.502Z,87.60
2022-10-03T15:20:13.605Z,87.90
2022-10-03T15:30:22.019Z,88.30
2022-10-03T15:40:35.053Z,88.50
2022-10-03T15:50:41.124Z,89.10
2022-10-03T16:00:48.394Z,89.80
2022-10-03T16:11:16.345Z,90.20
2022-10-03T16:21:44.597Z,90.60
2022-10-03T16:31:58.534Z,90.80
2022-10-03T16:42:10.126Z,91.00
2022-10-03T16:52:18.769Z,91.30
2022-10-03T17:02:28.488Z,91.60
2022-10-03T17:12:43.727Z,91.70
2022-10-03T17:23:01.249Z,92.10
2022-10-03T17:33:11.797Z,92.50
2022-10-03T17:43:28.176Z,93.00
2022-10-03T17:53:36.489Z,93.60
2022-10-03T18:03:38.063Z,94.10
2022-10-03T18:13:45.262Z,94.60
2022-10-03T18:24:10.957Z,95.80
2022-10-03T18:34:20.667Z,96.00
2022-10-03T18:44:24.140Z,96.00
2022-10-03T18:54:28.762Z,96.40
2022-10-03T19:05:20.070Z,96.70
2022-10-03T19:15:49.834Z,97.10
2022-10-03T19:25:56.555Z,97.20
2022-10-03T19:36:03.007Z,97.50
2022-10-03T19:46:10.586Z,97.80
2022-10-03T19:56:18.348Z,98.00
2022-10-03T20:06:26.788Z,98.30
2022-10-03T20:16:33.232Z,98.50
2022-10-03T20:26:41.466Z,98.50
2022-10-03T20:36:49.403Z,99.00
2022-10-03T20:47:10.793Z,99.10
2022-10-03T20:57:23.745Z,98.90
2022-10-03T21:07:51.644Z,99.00
2022-10-03T21:17:56.280Z,99.30
2022-10-03T21:27:58.737Z,99.40
2022-10-03T21:38:15.447Z,99.20
2022-10-03T21:48:38.252Z,99.20
2022-10-03T21:59:15.895Z,99.40
2022-10-03T22:09:17.677Z,99.60
2022-10-03T22:19:30.968Z,99.70
2022-10-03T22:29:36.968Z,99.80
2022-10-03T22:39:39.188Z,99.40
2022-10-03T22:49:44.698Z,99.80
2022-10-03T22:59:53.580Z,99.80
2022-10-03T23:10:10.736Z,99.30
2022-10-03T23:20:39.281Z,99.70
2022-10-03T23:30:48.090Z,99.80
2022-10-03T23:40:50.559Z,99.30
2022-10-03T23:50:54.232Z,99.30
